createdAt,value
2018-07-22T00:00:11.647Z,8.60
2018-07-22T00:02:39.895Z,8.00
2018-07-22T00:05:07.857Z,10.40
2018-07-22T00:07:35.612Z,8.07
2018-07-22T00:10:03.595Z,9.17
2018-07-22T00:12:31.221Z,7.67
2018-07-22T00:14:58.820Z,8.67
2018-07-22T00:17:26.425Z,8.00
2018-07-22T00:19:54.052Z,8.00
2018-07-22T00:22:22.310Z,8.17
2018-07-22T00:24:49.890Z,7.90
2018-07-22T00:27:17.504Z,9.47
2018-07-22T00:29:45.220Z,8.33
2018-07-22T00:32:12.793Z,9.23
2018-07-22T00:34:40.377Z,9.30
2018-07-22T00:37:08.003Z,8.90
2018-07-22T00:39:35.582Z,9.73
2018-07-22T00:42:03.155Z,9.40
2018-07-22T00:44:30.784Z,8.77
2018-07-22T00:46:58.401Z,9.30
2018-07-22T00:49:25.965Z,10.00
2018-07-22T00:51:53.613Z,9.50
2018-07-22T00:54:21.181Z,8.67
2018-07-22T00:56:48.718Z,9.70
2018-07-22T00:59:16.297Z,9.70
2018-07-22T01:01:43.858Z,9.63
2018-07-22T01:04:11.421Z,8.90
2018-07-22T01:06:39.011Z,10.40
2018-07-22T01:09:08.175Z,9.33
2018-07-22T01:11:35.775Z,10.30
2018-07-22T01:14:03.501Z,9.13
2018-07-22T01:16:31.124Z,9.80
2018-07-22T01:18:58.601Z,9.67
2018-07-22T01:21:26.189Z,10.40
2018-07-22T01:23:53.780Z,9.90
2018-07-22T01:26:21.399Z,9.50
2018-07-22T01:28:48.967Z,9.60
2018-07-22T01:31:16.560Z,10.33
2018-07-22T01:33:44.177Z,10.03
2018-07-22T01:36:11.736Z,12.77
2018-07-22T01:38:39.339Z,10.77
2018-07-22T01:41:06.978Z,9.57
2018-07-22T01:43:34.547Z,11.27
2018-07-22T01:46:02.129Z,10.63
2018-07-22T01:48:29.740Z,10.93
2018-07-22T01:50:57.382Z,11.17
2018-07-22T01:53:24.955Z,10.13
2018-07-22T01:55:52.619Z,10.07
2018-07-22T01:58:20.229Z,9.97
2018-07-22T02:00:47.820Z,11.80
2018-07-22T02:03:15.399Z,11.37
2018-07-22T02:05:43.019Z,11.10
2018-07-22T02:08:10.579Z,11.70
2018-07-22T02:10:38.077Z,12.07
2018-07-22T02:13:05.736Z,11.33
2018-07-22T02:15:33.325Z,12.00
2018-07-22T02:18:00.938Z,11.50
2018-07-22T02:20:28.526Z,11.93
2018-07-22T02:22:56.097Z,11.93
2018-07-22T02:25:23.634Z,11.70
2018-07-22T02:27:51.206Z,11.63
2018-07-22T02:30:18.760Z,12.30
2018-07-22T02:32:46.368Z,12.50
2018-07-22T02:35:13.956Z,12.50
2018-07-22T02:37:41.512Z,13.20
2018-07-22T02:40:09.067Z,12.70
2018-07-22T02:42:36.640Z,12.73
2018-07-22T02:45:04.300Z,13.90
2018-07-22T02:47:31.926Z,12.90
2018-07-22T02:49:59.489Z,13.33
2018-07-22T02:52:27.094Z,12.13
2018-07-22T02:54:54.694Z,14.27
2018-07-22T02:57:22.248Z,13.90
2018-07-22T02:59:49.811Z,13.00
2018-07-22T03:02:17.399Z,12.23
2018-07-22T03:04:45.288Z,13.30
2018-07-22T03:07:12.870Z,12.53
2018-07-22T03:09:40.477Z,12.83
2018-07-22T03:12:08.119Z,12.57
2018-07-22T03:14:35.698Z,13.43
2018-07-22T03:17:03.302Z,13.10
2018-07-22T03:19:30.882Z,12.37
2018-07-22T03:21:58.439Z,12.47
2018-07-22T03:24:26.056Z,14.17
2018-07-22T03:26:53.587Z,12.83
2018-07-22T03:29:21.588Z,12.93
2018-07-22T03:31:49.197Z,13.10
2018-07-22T03:34:16.762Z,14.57
2018-07-22T03:36:44.316Z,14.13
2018-07-22T03:39:11.955Z,14.70
2018-07-22T03:41:39.668Z,13.80
2018-07-22T03:44:07.604Z,13.90
2018-07-22T03:46:35.254Z,13.87
2018-07-22T03:49:02.841Z,15.23
2018-07-22T03:51:30.442Z,13.73
2018-07-22T03:53:58.077Z,15.80
2018-07-22T03:56:25.627Z,15.70
2018-07-22T03:58:53.148Z,14.83
2018-07-22T04:01:20.731Z,13.87
2018-07-22T04:03:48.367Z,14.73
2018-07-22T04:06:15.924Z,14.67
2018-07-22T04:08:43.507Z,14.90
2018-07-22T04:11:11.180Z,16.90
2018-07-22T04:13:38.775Z,17.20
2018-07-22T04:16:06.355Z,15.93
2018-07-22T04:18:38.492Z,15.63
2018-07-22T04:21:06.118Z,15.00
2018-07-22T04:23:33.646Z,17.47
2018-07-22T04:26:01.248Z,18.27
2018-07-22T04:28:28.848Z,17.73
2018-07-22T04:30:56.428Z,17.13
2018-07-22T04:33:24.039Z,17.97
2018-07-22T04:35:51.664Z,15.63
2018-07-22T04:38:19.251Z,16.20
2018-07-22T04:40:46.814Z,19.13
2018-07-22T04:43:14.400Z,16.97
2018-07-22T04:45:42.030Z,17.20
2018-07-22T04:48:09.659Z,15.67
2018-07-22T04:50:37.303Z,18.07
2018-07-22T04:53:04.984Z,17.30
2018-07-22T04:55:32.604Z,17.70
2018-07-22T04:58:00.070Z,17.90
2018-07-22T05:00:27.644Z,16.60
2018-07-22T05:02:55.233Z,19.70
2018-07-22T05:05:22.843Z,16.67
2018-07-22T05:07:50.410Z,15.47
2018-07-22T05:10:18.019Z,17.87
2018-07-22T05:12:45.584Z,16.83
2018-07-22T05:15:13.142Z,16.07
2018-07-22T05:17:40.744Z,16.63
2018-07-22T05:20:08.338Z,16.27
2018-07-22T05:22:35.914Z,16.40
2018-07-22T05:25:03.512Z,15.23
2018-07-22T05:27:31.109Z,15.60
2018-07-22T05:29:58.635Z,15.97
2018-07-22T05:32:26.206Z,15.97
2018-07-22T05:34:53.781Z,16.23
2018-07-22T05:37:21.391Z,14.90
2018-07-22T05:39:48.926Z,15.57
2018-07-22T05:42:16.490Z,15.30
2018-07-22T05:44:44.035Z,17.17
2018-07-22T05:47:11.697Z,16.47
2018-07-22T05:49:39.242Z,17.63
2018-07-22T05:52:06.860Z,18.17
2018-07-22T05:54:34.422Z,17.40
2018-07-22T05:57:02.015Z,15.37
2018-07-22T05:59:29.596Z,16.90
2018-07-22T06:01:57.242Z,15.70
2018-07-22T06:04:24.831Z,17.17
2018-07-22T06:06:52.492Z,16.43
2018-07-22T06:09:20.081Z,16.30
2018-07-22T06:11:47.751Z,16.13
2018-07-22T06:14:15.316Z,15.17
2018-07-22T06:16:42.856Z,15.67
2018-07-22T06:19:10.494Z,16.77
2018-07-22T06:21:38.090Z,17.00
2018-07-22T06:24:05.675Z,16.60
2018-07-22T06:26:33.272Z,16.77
2018-07-22T06:29:00.904Z,15.13
2018-07-22T06:31:28.486Z,16.00
2018-07-22T06:33:56.098Z,17.23
2018-07-22T06:36:23.725Z,15.70
2018-07-22T06:38:51.351Z,15.70
2018-07-22T06:41:18.938Z,16.50
2018-07-22T06:43:46.585Z,16.70
2018-07-22T06:46:14.151Z,16.57
2018-07-22T06:48:41.728Z,17.63
2018-07-22T06:51:09.329Z,17.20
2018-07-22T06:53:37.013Z,16.80
2018-07-22T06:56:04.731Z,17.00
2018-07-22T06:58:32.361Z,16.10
2018-07-22T07:01:00.146Z,16.70
2018-07-22T07:03:27.707Z,15.87
2018-07-22T07:05:55.313Z,14.63
2018-07-22T07:08:22.936Z,15.20
2018-07-22T07:10:50.573Z,14.33
2018-07-22T07:13:18.201Z,15.00
2018-07-22T07:15:45.813Z,15.80
2018-07-22T07:18:13.386Z,16.13
2018-07-22T07:20:41.045Z,16.63
2018-07-22T07:23:08.658Z,16.40
2018-07-22T07:25:36.252Z,15.43
2018-07-22T07:28:03.896Z,14.03
2018-07-22T07:30:31.499Z,15.00
2018-07-22T07:32:59.270Z,15.57
2018-07-22T07:35:27.070Z,17.20
2018-07-22T07:37:54.685Z,15.20
2018-07-22T07:40:22.322Z,16.93
2018-07-22T07:42:49.951Z,15.87
2018-07-22T07:45:17.578Z,15.07
2018-07-22T07:47:45.170Z,14.97
2018-07-22T07:50:12.868Z,14.90
2018-07-22T07:52:40.623Z,15.97
2018-07-22T07:55:08.292Z,15.73
2018-07-22T07:57:36.498Z,16.03
2018-07-22T08:00:04.916Z,15.80
2018-07-22T08:02:32.554Z,15.37
2018-07-22T08:05:00.216Z,16.00
2018-07-22T08:07:27.815Z,15.00
2018-07-22T08:09:55.514Z,17.30
2018-07-22T08:12:23.245Z,16.03
2018-07-22T08:14:50.901Z,17.93
2018-07-22T08:17:18.569Z,15.27
2018-07-22T08:19:46.215Z,14.87
2018-07-22T08:22:13.997Z,15.80
2018-07-22T08:24:41.683Z,14.13
2018-07-22T08:27:09.669Z,15.17
2018-07-22T08:29:39.258Z,14.20
2018-07-22T08:32:06.892Z,15.07
2018-07-22T08:34:34.595Z,16.17
2018-07-22T08:37:02.652Z,14.83
2018-07-22T08:39:31.286Z,16.50
2018-07-22T08:41:59.279Z,17.83
2018-07-22T08:44:27.040Z,17.87
2018-07-22T08:46:54.706Z,19.23
2018-07-22T08:49:22.399Z,17.60
2018-07-22T08:51:50.137Z,16.23
2018-07-22T08:54:19.760Z,16.97
2018-07-22T08:56:47.434Z,15.37
2018-07-22T08:59:15.050Z,14.37
2018-07-22T09:01:42.840Z,15.50
2018-07-22T09:04:10.515Z,17.37
2018-07-22T09:06:38.228Z,18.90
2018-07-22T09:09:07.801Z,18.60
2018-07-22T09:11:35.648Z,19.27
2018-07-22T09:14:03.376Z,17.57
2018-07-22T09:16:30.992Z,17.30
2018-07-22T09:18:58.596Z,17.57
2018-07-22T09:21:26.317Z,17.63
2018-07-22T09:23:53.966Z,19.90
2018-07-22T09:26:21.622Z,18.70
2018-07-22T09:28:49.322Z,20.00
2018-07-22T09:31:16.980Z,19.60
2018-07-22T09:33:44.940Z,18.80
2018-07-22T09:36:12.682Z,18.23
2018-07-22T09:38:40.292Z,17.30
2018-07-22T09:41:08.009Z,16.20
2018-07-22T09:43:35.660Z,15.53
2018-07-22T09:46:03.335Z,16.00
2018-07-22T09:48:30.949Z,16.67
2018-07-22T09:50:58.615Z,16.00
2018-07-22T09:53:26.279Z,15.93
2018-07-22T09:55:53.939Z,14.40
2018-07-22T09:58:21.678Z,15.60
2018-07-22T10:00:55.812Z,16.90
2018-07-22T10:03:24.561Z,15.97
2018-07-22T10:05:52.348Z,15.40
2018-07-22T10:08:20.032Z,15.30
2018-07-22T10:10:47.757Z,15.60
2018-07-22T10:13:15.488Z,14.40
2018-07-22T10:15:43.228Z,15.13
2018-07-22T10:18:10.903Z,14.70
2018-07-22T10:20:38.578Z,14.83
2018-07-22T10:23:06.228Z,13.60
2018-07-22T10:25:33.971Z,14.63
2018-07-22T10:28:01.579Z,15.73
2018-07-22T10:30:29.234Z,15.70
2018-07-22T10:32:56.936Z,14.80
2018-07-22T10:35:24.724Z,15.60
2018-07-22T10:37:52.367Z,13.57
2018-07-22T10:40:20.180Z,14.90
2018-07-22T10:42:49.533Z,14.23
2018-07-22T10:45:17.274Z,12.37
2018-07-22T10:47:44.884Z,13.80
2018-07-22T10:50:12.610Z,15.17
2018-07-22T10:52:40.308Z,13.37
2018-07-22T10:55:08.141Z,13.87
2018-07-22T10:57:36.137Z,14.27
2018-07-22T11:00:05.356Z,13.80
2018-07-22T11:02:33.049Z,13.90
2018-07-22T11:05:00.649Z,14.30
2018-07-22T11:07:28.257Z,14.10
2018-07-22T11:09:55.866Z,14.10
2018-07-22T11:12:23.557Z,12.93
2018-07-22T11:14:51.267Z,12.60
2018-07-22T11:17:18.834Z,15.00
2018-07-22T11:19:46.786Z,13.93
2018-07-22T11:22:14.417Z,13.10
2018-07-22T11:24:42.217Z,13.57
2018-07-22T11:27:10.118Z,13.53
2018-07-22T11:29:37.649Z,13.50
2018-07-22T11:32:05.437Z,13.83
2018-07-22T11:34:33.184Z,13.03
2018-07-22T11:37:00.849Z,13.20
2018-07-22T11:39:28.444Z,13.40
2018-07-22T11:41:56.192Z,11.97
2018-07-22T11:44:23.839Z,13.70
2018-07-22T11:46:51.467Z,13.57
2018-07-22T11:49:19.119Z,13.23
2018-07-22T11:51:46.736Z,12.93
2018-07-22T11:54:14.304Z,13.23
2018-07-22T11:56:41.983Z,14.67
2018-07-22T11:59:09.617Z,14.40
2018-07-22T12:01:37.248Z,14.07
2018-07-22T12:04:05.134Z,14.03
2018-07-22T12:06:32.906Z,13.60
2018-07-22T12:09:00.597Z,13.43
2018-07-22T12:11:28.291Z,14.43
2018-07-22T12:13:55.916Z,13.83
2018-07-22T12:16:23.571Z,14.10
2018-07-22T12:18:52.103Z,14.80
2018-07-22T12:21:19.775Z,14.40
2018-07-22T12:23:48.413Z,15.23
2018-07-22T12:26:17.047Z,13.87
2018-07-22T12:28:44.803Z,15.43
2018-07-22T12:31:12.897Z,15.47
2018-07-22T12:33:40.632Z,14.43
2018-07-22T12:36:08.702Z,15.60
2018-07-22T12:38:36.824Z,14.77
2018-07-22T12:41:04.613Z,16.97
2018-07-22T12:43:32.232Z,15.00
2018-07-22T12:45:59.900Z,15.57
2018-07-22T12:48:27.570Z,15.97
2018-07-22T12:50:55.321Z,16.13
2018-07-22T12:53:22.971Z,14.90
2018-07-22T12:55:50.711Z,15.97
2018-07-22T12:58:18.396Z,15.90
2018-07-22T13:00:46.201Z,15.43
2018-07-22T13:03:14.021Z,16.43
2018-07-22T13:05:41.695Z,14.63
2018-07-22T13:08:09.385Z,16.23
2018-07-22T13:10:37.093Z,13.20
2018-07-22T13:13:04.921Z,14.53
2018-07-22T13:15:32.556Z,15.20
2018-07-22T13:18:00.219Z,14.53
2018-07-22T13:20:27.958Z,13.50
2018-07-22T13:22:55.568Z,14.67
2018-07-22T13:25:23.272Z,14.50
2018-07-22T13:27:51.002Z,14.67
2018-07-22T13:30:18.623Z,14.70
2018-07-22T13:32:46.416Z,15.70
2018-07-22T13:35:14.056Z,14.83
2018-07-22T13:37:41.734Z,15.13
2018-07-22T13:40:09.425Z,14.27
2018-07-22T13:42:37.134Z,13.97
2018-07-22T13:45:05.195Z,13.57
2018-07-22T13:47:32.967Z,13.27
2018-07-22T13:50:00.765Z,12.83
2018-07-22T13:52:28.399Z,14.93
2018-07-22T13:54:56.093Z,14.60
2018-07-22T13:57:23.781Z,13.70
2018-07-22T13:59:51.460Z,13.57
2018-07-22T14:02:19.110Z,13.93
2018-07-22T14:04:47.674Z,14.20
2018-07-22T14:07:15.435Z,14.60
2018-07-22T14:09:43.077Z,16.73
2018-07-22T14:12:10.744Z,16.23
2018-07-22T14:14:38.402Z,15.97
2018-07-22T14:17:06.100Z,17.57
2018-07-22T14:19:33.799Z,18.10
2018-07-22T14:22:01.477Z,18.33
2018-07-22T14:24:29.150Z,18.33
2018-07-22T14:26:56.881Z,16.97
2018-07-22T14:29:24.541Z,17.70
2018-07-22T14:31:52.277Z,17.67
2018-07-22T14:34:19.911Z,17.90
2018-07-22T14:36:47.582Z,18.87
2018-07-22T14:39:15.252Z,17.70
2018-07-22T14:41:42.916Z,18.70
2018-07-22T14:44:10.420Z,18.50
2018-07-22T14:46:38.333Z,16.87
2018-07-22T14:49:06.026Z,15.70
2018-07-22T14:51:33.715Z,15.43
2018-07-22T14:54:02.056Z,14.33
2018-07-22T14:56:30.170Z,15.53
2018-07-22T14:58:58.179Z,16.77
2018-07-22T15:01:25.813Z,15.50
2018-07-22T15:03:53.471Z,15.30
2018-07-22T15:06:21.109Z,16.63
2018-07-22T15:08:48.809Z,14.60
2018-07-22T15:11:19.908Z,15.70
2018-07-22T15:13:48.750Z,19.23
2018-07-22T15:16:17.848Z,24.10
2018-07-22T15:18:47.069Z,40.13
2018-07-22T15:21:14.760Z,10.53
2018-07-22T15:23:42.412Z,15.47
2018-07-22T15:26:10.107Z,14.40
2018-07-22T15:28:37.796Z,29.07
2018-07-22T15:31:05.377Z,20.73
2018-07-22T15:33:33.079Z,29.83
2018-07-22T15:36:00.723Z,145.67
2018-07-22T15:38:28.377Z,94.67
2018-07-22T15:40:56.045Z,101.93
2018-07-22T15:43:23.721Z,163.83
2018-07-22T15:45:51.344Z,78.23
2018-07-22T15:48:18.965Z,87.07
2018-07-22T15:50:46.563Z,83.60
2018-07-22T15:53:14.136Z,91.07
2018-07-22T15:55:41.956Z,96.73
2018-07-22T15:58:09.432Z,77.47
2018-07-22T16:00:37.167Z,79.10
2018-07-22T16:03:04.909Z,71.83
2018-07-22T16:05:32.587Z,76.93
2018-07-22T16:08:00.285Z,81.80
2018-07-22T16:10:27.892Z,83.20
2018-07-22T16:12:55.525Z,89.80
2018-07-22T16:15:23.181Z,127.23
2018-07-22T16:17:50.779Z,143.73
2018-07-22T16:20:18.429Z,133.40
2018-07-22T16:22:46.143Z,146.27
2018-07-22T16:25:13.839Z,118.33
2018-07-22T16:27:41.418Z,96.77
2018-07-22T16:30:09.078Z,144.23
2018-07-22T16:32:36.792Z,130.07
2018-07-22T16:35:04.672Z,163.63
2018-07-22T16:37:32.412Z,163.30
2018-07-22T16:40:00.034Z,105.57
2018-07-22T16:42:27.659Z,465.33
2018-07-22T16:44:55.315Z,606.57
2018-07-22T16:47:23.066Z,217.43
2018-07-22T16:49:50.671Z,215.27
2018-07-22T16:52:18.342Z,841.07
2018-07-22T16:54:45.996Z,389.23
2018-07-22T16:57:14.812Z,502.27
2018-07-22T16:59:42.450Z,593.70
2018-07-22T17:02:10.240Z,739.30
2018-07-22T17:04:38.011Z,350.60
2018-07-22T17:07:05.814Z,109.20
2018-07-22T17:09:33.541Z,134.60
2018-07-22T17:12:01.206Z,147.10
2018-07-22T17:14:28.828Z,111.57
2018-07-22T17:16:56.580Z,143.43
2018-07-22T17:19:24.226Z,505.03
2018-07-22T17:21:51.892Z,600.93
2018-07-22T17:24:19.634Z,29.07
2018-07-22T17:26:47.424Z,599.50
2018-07-22T17:29:15.237Z,685.83
2018-07-22T17:31:42.795Z,820.77
2018-07-22T17:34:10.589Z,688.30
2018-07-22T17:36:38.233Z,698.00
2018-07-22T17:39:07.942Z,616.77
2018-07-22T17:41:35.695Z,352.00
2018-07-22T17:44:03.538Z,327.00
2018-07-22T17:46:31.738Z,336.63
2018-07-22T17:48:59.472Z,154.73
2018-07-22T17:51:27.147Z,331.63
2018-07-22T17:53:54.895Z,464.63
2018-07-22T17:56:22.590Z,605.40
2018-07-22T17:58:50.315Z,518.57
2018-07-22T18:01:18.044Z,363.33
2018-07-22T18:03:45.821Z,444.87
2018-07-22T18:06:13.383Z,28.03
2018-07-22T18:08:41.129Z,337.80
2018-07-22T18:11:08.906Z,637.83
2018-07-22T18:13:36.615Z,274.93
2018-07-22T18:16:04.517Z,142.13
2018-07-22T18:18:32.243Z,51.23
2018-07-22T18:20:59.873Z,27.03
2018-07-22T18:23:27.567Z,24.80
2018-07-22T18:25:55.302Z,84.63
2018-07-22T18:28:22.968Z,379.33
2018-07-22T18:30:50.900Z,26.30
2018-07-22T18:33:18.684Z,26.27
2018-07-22T18:35:46.448Z,446.10
2018-07-22T18:38:14.162Z,780.17
2018-07-22T18:40:42.059Z,402.90
2018-07-22T18:43:10.090Z,406.67
2018-07-22T18:45:40.300Z,597.37
2018-07-22T18:48:09.129Z,24.13
2018-07-22T18:50:36.779Z,444.50
2018-07-22T18:53:04.483Z,649.77
2018-07-22T18:55:32.313Z,94.27
2018-07-22T18:58:00.122Z,492.30
2018-07-22T19:00:28.118Z,50.67
2018-07-22T19:02:55.880Z,286.27
2018-07-22T19:05:24.520Z,25.07
2018-07-22T19:07:52.296Z,492.03
2018-07-22T19:10:20.343Z,33.43
2018-07-22T19:12:48.463Z,669.60
2018-07-22T19:15:16.472Z,139.90
2018-07-22T19:17:44.869Z,363.43
2018-07-22T19:20:12.647Z,428.23
2018-07-22T19:22:40.362Z,508.67
2018-07-22T19:25:08.150Z,758.43
2018-07-22T19:27:35.773Z,313.10
2018-07-22T19:30:03.642Z,726.57
2018-07-22T19:32:31.292Z,726.83
2018-07-22T19:34:59.093Z,474.00
2018-07-22T19:37:26.760Z,22.63
2018-07-22T19:39:54.402Z,559.77
2018-07-22T19:42:22.106Z,190.83
2018-07-22T19:44:49.834Z,323.83
2018-07-22T19:47:18.263Z,21.93
2018-07-22T19:49:45.791Z,29.90
2018-07-22T19:52:13.544Z,44.97
2018-07-22T19:54:41.287Z,24.87
2018-07-22T19:57:08.975Z,303.47
2018-07-22T19:59:36.639Z,47.37
2018-07-22T20:02:04.303Z,808.57
2018-07-22T20:04:32.624Z,724.90
2018-07-22T20:07:00.899Z,726.83
2018-07-22T20:09:28.640Z,509.53
2018-07-22T20:11:56.238Z,724.83
2018-07-22T20:14:23.899Z,462.37
2018-07-22T20:16:51.523Z,787.23
2018-07-22T20:19:19.095Z,564.67
2018-07-22T20:21:46.701Z,613.60
2018-07-22T20:24:14.371Z,764.80
2018-07-22T20:26:43.107Z,59.43
2018-07-22T20:29:10.791Z,235.43
2018-07-22T20:31:38.502Z,312.97
2018-07-22T20:34:06.224Z,199.20
2018-07-22T20:36:33.905Z,554.90
2018-07-22T20:39:01.712Z,622.87
2018-07-22T20:41:29.340Z,307.97
2018-07-22T20:43:56.956Z,225.63
2018-07-22T20:46:24.600Z,280.50
2018-07-22T20:48:52.799Z,27.93
2018-07-22T20:51:20.529Z,29.27
2018-07-22T20:53:48.081Z,31.00
2018-07-22T20:56:15.683Z,330.47
2018-07-22T20:58:43.307Z,29.23
2018-07-22T21:01:10.950Z,373.23
2018-07-22T21:03:38.596Z,28.50
2018-07-22T21:06:06.813Z,31.10
2018-07-22T21:08:34.360Z,29.77
2018-07-22T21:11:01.989Z,556.63
2018-07-22T21:13:29.604Z,513.83
2018-07-22T21:15:57.209Z,316.17
2018-07-22T21:18:25.668Z,403.97
2018-07-22T21:20:53.393Z,28.97
2018-07-22T21:23:20.997Z,29.50
2018-07-22T21:25:48.581Z,29.50
2018-07-22T21:28:16.221Z,28.70
2018-07-22T21:30:43.851Z,545.57
2018-07-22T21:33:11.510Z,35.47
2018-07-22T21:35:39.148Z,29.87
2018-07-22T21:38:06.897Z,561.13
2018-07-22T21:40:34.454Z,37.77
2018-07-22T21:43:02.047Z,36.63
2018-07-22T21:45:29.642Z,487.60
2018-07-22T21:47:57.302Z,100.60
2018-07-22T21:50:24.946Z,30.87
2018-07-22T21:52:52.564Z,67.93
2018-07-22T21:55:20.180Z,467.20
2018-07-22T21:57:47.771Z,618.97
2018-07-22T22:00:35.711Z,178.37
2018-07-22T22:03:04.071Z,510.40
2018-07-22T22:05:31.722Z,656.70
2018-07-22T22:07:59.368Z,788.83
2018-07-22T22:10:27.153Z,653.73
2018-07-22T22:12:55.239Z,32.77
2018-07-22T22:15:27.741Z,40.93
2018-07-22T22:17:56.400Z,128.07
2018-07-22T22:20:24.116Z,719.37
2018-07-22T22:22:51.731Z,180.90
2018-07-22T22:25:19.359Z,35.93
2018-07-22T22:27:47.112Z,405.40
2018-07-22T22:30:15.608Z,455.10
2018-07-22T22:32:43.797Z,34.30
2018-07-22T22:35:12.017Z,35.53
2018-07-22T22:37:40.894Z,34.00
2018-07-22T22:40:08.555Z,33.60
2018-07-22T22:42:36.236Z,35.07
2018-07-22T22:45:03.955Z,33.20
2018-07-22T22:47:31.528Z,35.87
2018-07-22T22:49:59.084Z,35.80
2018-07-22T22:52:26.879Z,35.13
2018-07-22T22:54:54.440Z,42.70
2018-07-22T22:57:22.873Z,34.50
2018-07-22T22:59:50.436Z,37.07
2018-07-22T23:02:19.032Z,160.00
2018-07-22T23:04:46.621Z,573.53
2018-07-22T23:07:14.193Z,535.07
2018-07-22T23:09:41.787Z,640.40
2018-07-22T23:12:09.400Z,196.67
2018-07-22T23:14:37.028Z,115.63
2018-07-22T23:17:04.640Z,205.97
2018-07-22T23:19:33.914Z,321.47
2018-07-22T23:22:01.541Z,311.00
2018-07-22T23:24:29.118Z,66.90
2018-07-22T23:26:56.686Z,65.00
2018-07-22T23:29:24.293Z,34.60
2018-07-22T23:31:52.708Z,33.50
2018-07-22T23:34:20.302Z,41.93
2018-07-22T23:36:47.931Z,33.90
2018-07-22T23:39:15.489Z,275.90
2018-07-22T23:41:43.099Z,36.30
2018-07-22T23:44:10.658Z,63.53
2018-07-22T23:46:38.267Z,35.43
2018-07-22T23:49:05.838Z,34.80
2018-07-22T23:51:33.424Z,38.30
2018-07-22T23:54:01.045Z,36.83
2018-07-22T23:56:28.671Z,39.60
2018-07-22T23:58:56.261Z,96.47
